sensor_id;sensor_type;location;lat;lon;timestamp;P1;durP1;ratioP1;P2;durP2;ratioP2
22973;SDS011;11653;50.848;4.584;2023-01-16T00:01:11;4.10;;;1.37;;
22973;SDS011;11653;50.848;4.584;2023-01-16T00:03:38;6.87;;;1.50;;
22973;SDS011;11653;50.848;4.584;2023-01-16T00:06:03;8.80;;;1.50;;
22973;SDS011;11653;50.848;4.584;2023-01-16T00:08:30;5.27;;;1.40;;
22973;SDS011;11653;50.848;4.584;2023-01-16T00:10:55;5.50;;;1.50;;
22973;SDS011;11653;50.848;4.584;2023-01-16T00:13:21;5.10;;;1.50;;
22973;SDS011;11653;50.848;4.584;2023-01-16T00:15:48;5.97;;;1.47;;
22973;SDS011;11653;50.848;4.584;2023-01-16T00:18:15;3.43;;;1.20;;
22973;SDS011;11653;50.848;4.584;2023-01-16T00:20:41;6.77;;;1.27;;
22973;SDS011;11653;50.848;4.584;2023-01-16T00:23:07;4.33;;;1.27;;
22973;SDS011;11653;50.848;4.584;2023-01-16T00:25:33;4.10;;;1.47;;
22973;SDS011;11653;50.848;4.584;2023-01-16T00:28:03;3.70;;;1.27;;
22973;SDS011;11653;50.848;4.584;2023-01-16T00:30:28;2.97;;;1.40;;
22973;SDS011;11653;50.848;4.584;2023-01-16T00:32:54;6.43;;;1.30;;
22973;SDS011;11653;50.848;4.584;2023-01-16T00:35:20;6.03;;;1.43;;
22973;SDS011;11653;50.848;4.584;2023-01-16T00:37:45;5.77;;;1.50;;
22973;SDS011;11653;50.848;4.584;2023-01-16T00:40:11;3.20;;;1.40;;
22973;SDS011;11653;50.848;4.584;2023-01-16T00:42:37;3.07;;;1.70;;
22973;SDS011;11653;50.848;4.584;2023-01-16T00:45:02;5.17;;;1.50;;
22973;SDS011;11653;50.848;4.584;2023-01-16T00:47:28;5.63;;;1.37;;
22973;SDS011;11653;50.848;4.584;2023-01-16T00:49:54;2.80;;;1.63;;
22973;SDS011;11653;50.848;4.584;2023-01-16T00:52:20;5.47;;;1.63;;
22973;SDS011;11653;50.848;4.584;2023-01-16T00:54:45;3.60;;;1.50;;
22973;SDS011;11653;50.848;4.584;2023-01-16T00:57:11;7.53;;;1.23;;
22973;SDS011;11653;50.848;4.584;2023-01-16T00:59:37;3.67;;;1.00;;
22973;SDS011;11653;50.848;4.584;2023-01-16T01:02:02;8.07;;;1.60;;
22973;SDS011;11653;50.848;4.584;2023-01-16T01:04:28;4.57;;;1.40;;
22973;SDS011;11653;50.848;4.584;2023-01-16T01:06:54;5.47;;;1.60;;
22973;SDS011;11653;50.848;4.584;2023-01-16T01:09:19;7.10;;;2.07;;
22973;SDS011;11653;50.848;4.584;2023-01-16T01:11:45;4.37;;;1.50;;
22973;SDS011;11653;50.848;4.584;2023-01-16T01:14:11;5.10;;;1.40;;
22973;SDS011;11653;50.848;4.584;2023-01-16T01:16:36;7.70;;;1.70;;
22973;SDS011;11653;50.848;4.584;2023-01-16T01:19:02;4.90;;;1.60;;
22973;SDS011;11653;50.848;4.584;2023-01-16T01:21:28;6.77;;;1.60;;
22973;SDS011;11653;50.848;4.584;2023-01-16T01:23:55;6.23;;;1.87;;
22973;SDS011;11653;50.848;4.584;2023-01-16T01:26:21;6.77;;;1.90;;
22973;SDS011;11653;50.848;4.584;2023-01-16T01:28:47;5.73;;;1.70;;
22973;SDS011;11653;50.848;4.584;2023-01-16T01:31:12;5.77;;;1.73;;
22973;SDS011;11653;50.848;4.584;2023-01-16T01:33:39;8.20;;;2.00;;
22973;SDS011;11653;50.848;4.584;2023-01-16T01:36:05;8.37;;;2.17;;
22973;SDS011;11653;50.848;4.584;2023-01-16T01:38:32;5.47;;;1.60;;
22973;SDS011;11653;50.848;4.584;2023-01-16T01:40:58;8.53;;;1.90;;
22973;SDS011;11653;50.848;4.584;2023-01-16T01:43:40;7.17;;;1.80;;
22973;SDS011;11653;50.848;4.584;2023-01-16T01:46:26;12.57;;;2.10;;
22973;SDS011;11653;50.848;4.584;2023-01-16T01:49:06;10.00;;;2.10;;
22973;SDS011;11653;50.848;4.584;2023-01-16T01:51:44;8.80;;;2.40;;
22973;SDS011;11653;50.848;4.584;2023-01-16T01:54:10;14.67;;;4.37;;
22973;SDS011;11653;50.848;4.584;2023-01-16T01:56:42;14.97;;;4.20;;
22973;SDS011;11653;50.848;4.584;2023-01-16T01:59:12;7.97;;;2.53;;
22973;SDS011;11653;50.848;4.584;2023-01-16T02:01:42;7.90;;;2.43;;
22973;SDS011;11653;50.848;4.584;2023-01-16T02:04:15;3.70;;;1.70;;
22973;SDS011;11653;50.848;4.584;2023-01-16T02:06:45;10.43;;;2.43;;
22973;SDS011;11653;50.848;4.584;2023-01-16T02:09:13;7.20;;;2.10;;
22973;SDS011;11653;50.848;4.584;2023-01-16T02:14:16;7.80;;;2.07;;
22973;SDS011;11653;50.848;4.584;2023-01-16T02:16:42;8.80;;;2.37;;
22973;SDS011;11653;50.848;4.584;2023-01-16T02:22:28;8.83;;;1.83;;
22973;SDS011;11653;50.848;4.584;2023-01-16T02:33:27;7.63;;;2.27;;
22973;SDS011;11653;50.848;4.584;2023-01-16T02:41:12;5.50;;;1.60;;
22973;SDS011;11653;50.848;4.584;2023-01-16T02:46:19;5.50;;;1.60;;
22973;SDS011;11653;50.848;4.584;2023-01-16T02:49:10;8.40;;;1.73;;
22973;SDS011;11653;50.848;4.584;2023-01-16T02:51:57;7.43;;;1.87;;
22973;SDS011;11653;50.848;4.584;2023-01-16T02:54:32;6.87;;;1.97;;
22973;SDS011;11653;50.848;4.584;2023-01-16T02:57:21;8.67;;;1.73;;
22973;SDS011;11653;50.848;4.584;2023-01-16T02:59:47;8.43;;;1.60;;
22973;SDS011;11653;50.848;4.584;2023-01-16T03:02:15;7.97;;;2.33;;
22973;SDS011;11653;50.848;4.584;2023-01-16T03:21:10;5.20;;;2.00;;
22973;SDS011;11653;50.848;4.584;2023-01-16T03:23:54;6.80;;;1.50;;
22973;SDS011;11653;50.848;4.584;2023-01-16T03:26:29;12.90;;;2.00;;
22973;SDS011;11653;50.848;4.584;2023-01-16T03:29:18;6.10;;;1.70;;
22973;SDS011;11653;50.848;4.584;2023-01-16T03:32:11;8.03;;;1.90;;
22973;SDS011;11653;50.848;4.584;2023-01-16T03:34:53;3.80;;;1.50;;
22973;SDS011;11653;50.848;4.584;2023-01-16T03:37:33;13.40;;;3.43;;
22973;SDS011;11653;50.848;4.584;2023-01-16T03:40:06;3.53;;;1.37;;
22973;SDS011;11653;50.848;4.584;2023-01-16T03:42:42;5.90;;;1.70;;
22973;SDS011;11653;50.848;4.584;2023-01-16T03:45:32;9.17;;;1.60;;
22973;SDS011;11653;50.848;4.584;2023-01-16T03:48:10;5.37;;;1.30;;
22973;SDS011;11653;50.848;4.584;2023-01-16T03:50:43;8.43;;;1.60;;
22973;SDS011;11653;50.848;4.584;2023-01-16T03:53:14;6.80;;;1.77;;
22973;SDS011;11653;50.848;4.584;2023-01-16T03:55:45;9.20;;;1.53;;
22973;SDS011;11653;50.848;4.584;2023-01-16T03:58:39;9.77;;;1.60;;
22973;SDS011;11653;50.848;4.584;2023-01-16T04:01:11;3.77;;;1.20;;
22973;SDS011;11653;50.848;4.584;2023-01-16T04:03:46;6.97;;;1.40;;
22973;SDS011;11653;50.848;4.584;2023-01-16T04:09:24;5.53;;;1.70;;
22973;SDS011;11653;50.848;4.584;2023-01-16T04:11:57;7.77;;;1.60;;
22973;SDS011;11653;50.848;4.584;2023-01-16T04:14:25;3.97;;;1.17;;
22973;SDS011;11653;50.848;4.584;2023-01-16T04:16:52;8.77;;;1.40;;
22973;SDS011;11653;50.848;4.584;2023-01-16T04:19:18;6.17;;;1.60;;
22973;SDS011;11653;50.848;4.584;2023-01-16T04:21:46;4.73;;;1.30;;
22973;SDS011;11653;50.848;4.584;2023-01-16T04:24:13;5.23;;;1.40;;
22973;SDS011;11653;50.848;4.584;2023-01-16T04:26:39;8.17;;;1.40;;
22973;SDS011;11653;50.848;4.584;2023-01-16T04:29:05;6.33;;;1.20;;
22973;SDS011;11653;50.848;4.584;2023-01-16T04:31:31;5.93;;;1.30;;
22973;SDS011;11653;50.848;4.584;2023-01-16T04:33:56;5.97;;;2.00;;
22973;SDS011;11653;50.848;4.584;2023-01-16T04:36:22;7.20;;;2.10;;
22973;SDS011;11653;50.848;4.584;2023-01-16T04:38:48;2.93;;;1.37;;
22973;SDS011;11653;50.848;4.584;2023-01-16T04:41:14;5.17;;;1.60;;
22973;SDS011;11653;50.848;4.584;2023-01-16T04:44:01;8.50;;;1.63;;
22973;SDS011;11653;50.848;4.584;2023-01-16T04:46:31;5.57;;;1.60;;
22973;SDS011;11653;50.848;4.584;2023-01-16T04:48:56;6.73;;;1.40;;
22973;SDS011;11653;50.848;4.584;2023-01-16T04:51:22;2.47;;;1.07;;
22973;SDS011;11653;50.848;4.584;2023-01-16T04:53:49;5.80;;;1.40;;
22973;SDS011;11653;50.848;4.584;2023-01-16T04:56:14;2.97;;;1.70;;
22973;SDS011;11653;50.848;4.584;2023-01-16T04:58:40;6.37;;;1.50;;
22973;SDS011;11653;50.848;4.584;2023-01-16T05:01:06;5.23;;;1.37;;
22973;SDS011;11653;50.848;4.584;2023-01-16T05:03:31;9.33;;;1.60;;
22973;SDS011;11653;50.848;4.584;2023-01-16T05:05:57;5.10;;;1.50;;
22973;SDS011;11653;50.848;4.584;2023-01-16T05:08:23;5.30;;;1.40;;
22973;SDS011;11653;50.848;4.584;2023-01-16T05:10:52;10.17;;;1.87;;
22973;SDS011;11653;50.848;4.584;2023-01-16T05:13:19;7.93;;;2.07;;
22973;SDS011;11653;50.848;4.584;2023-01-16T05:15:47;4.33;;;1.63;;
22973;SDS011;11653;50.848;4.584;2023-01-16T05:18:13;7.07;;;2.50;;
22973;SDS011;11653;50.848;4.584;2023-01-16T05:20:39;10.13;;;2.47;;
22973;SDS011;11653;50.848;4.584;2023-01-16T05:23:05;7.33;;;1.67;;
22973;SDS011;11653;50.848;4.584;2023-01-16T05:25:31;10.53;;;2.37;;
22973;SDS011;11653;50.848;4.584;2023-01-16T05:27:57;7.27;;;1.60;;
22973;SDS011;11653;50.848;4.584;2023-01-16T05:30:23;5.17;;;1.40;;
22973;SDS011;11653;50.848;4.584;2023-01-16T05:32:48;8.20;;;1.80;;
22973;SDS011;11653;50.848;4.584;2023-01-16T05:35:14;10.07;;;2.23;;
22973;SDS011;11653;50.848;4.584;2023-01-16T05:37:41;21.23;;;2.53;;
22973;SDS011;11653;50.848;4.584;2023-01-16T05:40:07;9.73;;;2.30;;
22973;SDS011;11653;50.848;4.584;2023-01-16T05:42:34;4.80;;;2.00;;
22973;SDS011;11653;50.848;4.584;2023-01-16T05:45:00;4.27;;;1.70;;
22973;SDS011;11653;50.848;4.584;2023-01-16T05:47:26;7.43;;;1.83;;
22973;SDS011;11653;50.848;4.584;2023-01-16T05:49:51;6.37;;;1.40;;
22973;SDS011;11653;50.848;4.584;2023-01-16T05:52:17;3.77;;;1.60;;
22973;SDS011;11653;50.848;4.584;2023-01-16T05:54:43;9.23;;;2.90;;
22973;SDS011;11653;50.848;4.584;2023-01-16T05:57:08;7.43;;;2.00;;
22973;SDS011;11653;50.848;4.584;2023-01-16T05:59:34;6.97;;;2.47;;
22973;SDS011;11653;50.848;4.584;2023-01-16T06:02:00;6.57;;;1.63;;
22973;SDS011;11653;50.848;4.584;2023-01-16T06:04:26;9.63;;;3.13;;
22973;SDS011;11653;50.848;4.584;2023-01-16T06:06:51;5.43;;;1.70;;
22973;SDS011;11653;50.848;4.584;2023-01-16T06:09:18;8.70;;;1.90;;
22973;SDS011;11653;50.848;4.584;2023-01-16T06:11:43;14.63;;;4.10;;
22973;SDS011;11653;50.848;4.584;2023-01-16T06:14:09;10.97;;;3.20;;
22973;SDS011;11653;50.848;4.584;2023-01-16T06:16:35;7.43;;;2.90;;
22973;SDS011;11653;50.848;4.584;2023-01-16T06:19:01;7.17;;;2.97;;
22973;SDS011;11653;50.848;4.584;2023-01-16T06:21:27;10.77;;;2.03;;
22973;SDS011;11653;50.848;4.584;2023-01-16T06:23:52;7.20;;;2.73;;
22973;SDS011;11653;50.848;4.584;2023-01-16T06:26:18;14.07;;;4.57;;
22973;SDS011;11653;50.848;4.584;2023-01-16T06:28:44;10.87;;;3.03;;
22973;SDS011;11653;50.848;4.584;2023-01-16T06:31:11;10.47;;;2.70;;
22973;SDS011;11653;50.848;4.584;2023-01-16T06:33:37;4.17;;;1.13;;
22973;SDS011;11653;50.848;4.584;2023-01-16T06:36:03;2.10;;;1.33;;
22973;SDS011;11653;50.848;4.584;2023-01-16T06:38:29;4.07;;;1.30;;
22973;SDS011;11653;50.848;4.584;2023-01-16T06:40:55;3.63;;;1.30;;
22973;SDS011;11653;50.848;4.584;2023-01-16T06:43:25;6.37;;;2.40;;
22973;SDS011;11653;50.848;4.584;2023-01-16T06:45:52;11.23;;;4.10;;
22973;SDS011;11653;50.848;4.584;2023-01-16T06:48:18;6.07;;;1.53;;
22973;SDS011;11653;50.848;4.584;2023-01-16T06:50:44;6.77;;;2.23;;
22973;SDS011;11653;50.848;4.584;2023-01-16T06:53:10;6.93;;;2.40;;
22973;SDS011;11653;50.848;4.584;2023-01-16T06:55:37;1.30;;;1.00;;
22973;SDS011;11653;50.848;4.584;2023-01-16T06:58:03;5.17;;;1.80;;
22973;SDS011;11653;50.848;4.584;2023-01-16T07:00:29;7.77;;;2.23;;
22973;SDS011;11653;50.848;4.584;2023-01-16T07:02:55;7.87;;;3.03;;
22973;SDS011;11653;50.848;4.584;2023-01-16T07:05:22;1.07;;;1.00;;
22973;SDS011;11653;50.848;4.584;2023-01-16T07:07:49;2.00;;;0.93;;
22973;SDS011;11653;50.848;4.584;2023-01-16T07:10:15;1.13;;;0.70;;
22973;SDS011;11653;50.848;4.584;2023-01-16T07:12:41;1.13;;;1.03;;
22973;SDS011;11653;50.848;4.584;2023-01-16T07:15:08;2.37;;;1.00;;
22973;SDS011;11653;50.848;4.584;2023-01-16T07:17:55;1.40;;;0.93;;
22973;SDS011;11653;50.848;4.584;2023-01-16T07:20:39;1.20;;;1.10;;
22973;SDS011;11653;50.848;4.584;2023-01-16T07:23:30;4.23;;;1.73;;
22973;SDS011;11653;50.848;4.584;2023-01-16T07:25:59;1.60;;;1.50;;
22973;SDS011;11653;50.848;4.584;2023-01-16T07:28:29;3.40;;;2.20;;
22973;SDS011;11653;50.848;4.584;2023-01-16T07:30:55;1.43;;;0.80;;
22973;SDS011;11653;50.848;4.584;2023-01-16T07:33:22;1.03;;;1.03;;
22973;SDS011;11653;50.848;4.584;2023-01-16T07:35:48;0.80;;;0.80;;
22973;SDS011;11653;50.848;4.584;2023-01-16T07:38:14;0.80;;;0.80;;
22973;SDS011;11653;50.848;4.584;2023-01-16T07:40:40;0.50;;;0.50;;
22973;SDS011;11653;50.848;4.584;2023-01-16T07:43:07;2.03;;;0.77;;
22973;SDS011;11653;50.848;4.584;2023-01-16T07:45:33;1.10;;;0.97;;
22973;SDS011;11653;50.848;4.584;2023-01-16T07:47:58;0.70;;;0.70;;
22973;SDS011;11653;50.848;4.584;2023-01-16T07:50:25;0.60;;;0.60;;
22973;SDS011;11653;50.848;4.584;2023-01-16T07:52:52;1.40;;;1.10;;
22973;SDS011;11653;50.848;4.584;2023-01-16T07:55:18;1.10;;;1.00;;
22973;SDS011;11653;50.848;4.584;2023-01-16T07:57:43;0.70;;;0.70;;
22973;SDS011;11653;50.848;4.584;2023-01-16T08:00:10;0.90;;;0.90;;
22973;SDS011;11653;50.848;4.584;2023-01-16T08:02:37;1.00;;;0.90;;
22973;SDS011;11653;50.848;4.584;2023-01-16T08:05:03;2.20;;;1.03;;
22973;SDS011;11653;50.848;4.584;2023-01-16T08:07:29;1.00;;;0.90;;
22973;SDS011;11653;50.848;4.584;2023-01-16T08:09:55;0.93;;;0.90;;
22973;SDS011;11653;50.848;4.584;2023-01-16T08:12:21;0.90;;;0.90;;
22973;SDS011;11653;50.848;4.584;2023-01-16T08:14:47;0.90;;;0.90;;
22973;SDS011;11653;50.848;4.584;2023-01-16T08:17:12;1.20;;;1.10;;
22973;SDS011;11653;50.848;4.584;2023-01-16T08:19:38;2.10;;;1.50;;
22973;SDS011;11653;50.848;4.584;2023-01-16T08:22:04;1.33;;;1.00;;
22973;SDS011;11653;50.848;4.584;2023-01-16T08:24:30;1.40;;;1.00;;
22973;SDS011;11653;50.848;4.584;2023-01-16T08:26:55;1.87;;;1.67;;
22973;SDS011;11653;50.848;4.584;2023-01-16T08:29:22;2.70;;;1.53;;
22973;SDS011;11653;50.848;4.584;2023-01-16T08:31:48;1.40;;;1.30;;
22973;SDS011;11653;50.848;4.584;2023-01-16T08:34:14;3.60;;;2.30;;
22973;SDS011;11653;50.848;4.584;2023-01-16T08:36:40;1.77;;;1.00;;
22973;SDS011;11653;50.848;4.584;2023-01-16T08:39:08;2.70;;;1.10;;
22973;SDS011;11653;50.848;4.584;2023-01-16T08:41:35;1.10;;;1.00;;
22973;SDS011;11653;50.848;4.584;2023-01-16T08:44:19;2.87;;;1.30;;
22973;SDS011;11653;50.848;4.584;2023-01-16T08:47:04;1.93;;;1.60;;
22973;SDS011;11653;50.848;4.584;2023-01-16T08:50:12;1.03;;;0.97;;
22973;SDS011;11653;50.848;4.584;2023-01-16T08:52:58;1.20;;;1.10;;
22973;SDS011;11653;50.848;4.584;2023-01-16T08:55:24;1.53;;;1.37;;
22973;SDS011;11653;50.848;4.584;2023-01-16T08:57:50;1.83;;;1.37;;
22973;SDS011;11653;50.848;4.584;2023-01-16T09:00:15;0.90;;;0.83;;
22973;SDS011;11653;50.848;4.584;2023-01-16T09:02:44;1.70;;;1.30;;
22973;SDS011;11653;50.848;4.584;2023-01-16T09:05:11;1.17;;;1.00;;
22973;SDS011;11653;50.848;4.584;2023-01-16T09:07:38;0.80;;;0.80;;
22973;SDS011;11653;50.848;4.584;2023-01-16T09:10:05;1.40;;;1.30;;
22973;SDS011;11653;50.848;4.584;2023-01-16T09:12:31;4.93;;;2.87;;
22973;SDS011;11653;50.848;4.584;2023-01-16T09:15:15;1.37;;;1.00;;
22973;SDS011;11653;50.848;4.584;2023-01-16T09:17:41;4.63;;;1.30;;
22973;SDS011;11653;50.848;4.584;2023-01-16T09:20:07;4.10;;;2.37;;
22973;SDS011;11653;50.848;4.584;2023-01-16T09:22:33;1.83;;;1.23;;
22973;SDS011;11653;50.848;4.584;2023-01-16T09:24:59;2.10;;;1.27;;
22973;SDS011;11653;50.848;4.584;2023-01-16T09:27:24;1.57;;;1.40;;
22973;SDS011;11653;50.848;4.584;2023-01-16T09:29:50;3.17;;;1.30;;
22973;SDS011;11653;50.848;4.584;2023-01-16T09:32:16;2.23;;;1.60;;
22973;SDS011;11653;50.848;4.584;2023-01-16T09:34:43;1.00;;;1.00;;
22973;SDS011;11653;50.848;4.584;2023-01-16T09:37:09;3.20;;;1.27;;
22973;SDS011;11653;50.848;4.584;2023-01-16T09:39:35;1.20;;;1.10;;
22973;SDS011;11653;50.848;4.584;2023-01-16T09:45:06;1.80;;;0.90;;
22973;SDS011;11653;50.848;4.584;2023-01-16T09:47:35;2.70;;;2.23;;
22973;SDS011;11653;50.848;4.584;2023-01-16T09:50:11;2.10;;;0.80;;
22973;SDS011;11653;50.848;4.584;2023-01-16T09:52:48;1.87;;;1.50;;
22973;SDS011;11653;50.848;4.584;2023-01-16T09:55:41;3.83;;;1.07;;
22973;SDS011;11653;50.848;4.584;2023-01-16T09:58:28;4.07;;;0.90;;
22973;SDS011;11653;50.848;4.584;2023-01-16T10:01:08;2.80;;;1.10;;
22973;SDS011;11653;50.848;4.584;2023-01-16T10:03:43;1.90;;;1.30;;
22973;SDS011;11653;50.848;4.584;2023-01-16T10:11:34;1.03;;;0.77;;
22973;SDS011;11653;50.848;4.584;2023-01-16T10:19:09;1.00;;;0.63;;
22973;SDS011;11653;50.848;4.584;2023-01-16T10:32:43;1.50;;;0.60;;
22973;SDS011;11653;50.848;4.584;2023-01-16T10:35:27;1.00;;;0.63;;
22973;SDS011;11653;50.848;4.584;2023-01-16T10:37:59;0.80;;;0.80;;
22973;SDS011;11653;50.848;4.584;2023-01-16T10:40:43;0.70;;;0.70;;
22973;SDS011;11653;50.848;4.584;2023-01-16T10:43:14;0.60;;;0.40;;
22973;SDS011;11653;50.848;4.584;2023-01-16T10:46:10;0.70;;;0.70;;
22973;SDS011;11653;50.848;4.584;2023-01-16T10:49:00;0.97;;;0.80;;
22973;SDS011;11653;50.848;4.584;2023-01-16T10:51:44;1.53;;;0.60;;
22973;SDS011;11653;50.848;4.584;2023-01-16T10:54:10;0.70;;;0.60;;
22973;SDS011;11653;50.848;4.584;2023-01-16T10:56:36;0.50;;;0.50;;
22973;SDS011;11653;50.848;4.584;2023-01-16T10:59:05;1.63;;;0.60;;
22973;SDS011;11653;50.848;4.584;2023-01-16T11:01:30;1.57;;;0.67;;
22973;SDS011;11653;50.848;4.584;2023-01-16T11:03:58;0.80;;;0.70;;
22973;SDS011;11653;50.848;4.584;2023-01-16T11:06:26;0.77;;;0.70;;
22973;SDS011;11653;50.848;4.584;2023-01-16T11:11:19;1.80;;;1.70;;
22973;SDS011;11653;50.848;4.584;2023-01-16T11:17:22;0.70;;;0.70;;
22973;SDS011;11653;50.848;4.584;2023-01-16T11:20:33;1.43;;;0.70;;
22973;SDS011;11653;50.848;4.584;2023-01-16T11:25:40;0.70;;;0.70;;
22973;SDS011;11653;50.848;4.584;2023-01-16T11:28:09;2.47;;;1.03;;
22973;SDS011;11653;50.848;4.584;2023-01-16T11:30:45;1.63;;;0.70;;
22973;SDS011;11653;50.848;4.584;2023-01-16T11:33:22;0.77;;;0.77;;
22973;SDS011;11653;50.848;4.584;2023-01-16T11:35:54;0.50;;;0.50;;
22973;SDS011;11653;50.848;4.584;2023-01-16T11:38:22;0.50;;;0.50;;
22973;SDS011;11653;50.848;4.584;2023-01-16T11:40:49;0.60;;;0.60;;
22973;SDS011;11653;50.848;4.584;2023-01-16T11:43:17;0.60;;;0.60;;
22973;SDS011;11653;50.848;4.584;2023-01-16T11:46:30;0.60;;;0.60;;
22973;SDS011;11653;50.848;4.584;2023-01-16T11:49:11;0.40;;;0.40;;
22973;SDS011;11653;50.848;4.584;2023-01-16T11:51:43;0.70;;;0.70;;
22973;SDS011;11653;50.848;4.584;2023-01-16T11:54:16;0.60;;;0.60;;
22973;SDS011;11653;50.848;4.584;2023-01-16T11:59:36;0.50;;;0.50;;
22973;SDS011;11653;50.848;4.584;2023-01-16T12:08:30;0.50;;;0.50;;
22973;SDS011;11653;50.848;4.584;2023-01-16T12:11:06;2.30;;;0.67;;
22973;SDS011;11653;50.848;4.584;2023-01-16T12:13:57;0.60;;;0.60;;
22973;SDS011;11653;50.848;4.584;2023-01-16T12:22:56;0.53;;;0.50;;
22973;SDS011;11653;50.848;4.584;2023-01-16T12:25:57;0.80;;;0.80;;
22973;SDS011;11653;50.848;4.584;2023-01-16T12:40:35;0.80;;;0.70;;
22973;SDS011;11653;50.848;4.584;2023-01-16T12:49:24;1.30;;;1.20;;
22973;SDS011;11653;50.848;4.584;2023-01-16T12:52:12;0.80;;;0.80;;
22973;SDS011;11653;50.848;4.584;2023-01-16T12:55:07;1.40;;;0.80;;
22973;SDS011;11653;50.848;4.584;2023-01-16T13:03:36;1.07;;;0.97;;
22973;SDS011;11653;50.848;4.584;2023-01-16T13:06:19;1.23;;;1.00;;
22973;SDS011;11653;50.848;4.584;2023-01-16T13:08:52;0.97;;;0.90;;
22973;SDS011;11653;50.848;4.584;2023-01-16T13:11:38;1.37;;;0.90;;
22973;SDS011;11653;50.848;4.584;2023-01-16T13:14:32;1.20;;;0.87;;
22973;SDS011;11653;50.848;4.584;2023-01-16T13:17:01;2.60;;;0.90;;
22973;SDS011;11653;50.848;4.584;2023-01-16T13:19:31;2.03;;;0.93;;
22973;SDS011;11653;50.848;4.584;2023-01-16T13:22:04;1.73;;;0.90;;
22973;SDS011;11653;50.848;4.584;2023-01-16T13:24:55;1.40;;;1.17;;
22973;SDS011;11653;50.848;4.584;2023-01-16T13:27:48;0.87;;;0.80;;
22973;SDS011;11653;50.848;4.584;2023-01-16T13:30:20;1.70;;;0.90;;
22973;SDS011;11653;50.848;4.584;2023-01-16T13:32:54;0.80;;;0.80;;
22973;SDS011;11653;50.848;4.584;2023-01-16T13:35:26;1.33;;;1.00;;
22973;SDS011;11653;50.848;4.584;2023-01-16T13:43:31;2.07;;;1.20;;
22973;SDS011;11653;50.848;4.584;2023-01-16T13:46:23;2.67;;;1.37;;
22973;SDS011;11653;50.848;4.584;2023-01-16T13:48:54;1.93;;;1.60;;
22973;SDS011;11653;50.848;4.584;2023-01-16T13:51:24;4.27;;;1.60;;
22973;SDS011;11653;50.848;4.584;2023-01-16T13:53:51;3.57;;;1.20;;
22973;SDS011;11653;50.848;4.584;2023-01-16T13:56:22;1.60;;;1.13;;
22973;SDS011;11653;50.848;4.584;2023-01-16T13:59:08;3.10;;;1.40;;
22973;SDS011;11653;50.848;4.584;2023-01-16T14:07:46;1.10;;;1.00;;
22973;SDS011;11653;50.848;4.584;2023-01-16T14:13:25;1.20;;;1.10;;
22973;SDS011;11653;50.848;4.584;2023-01-16T14:16:01;1.17;;;1.00;;
22973;SDS011;11653;50.848;4.584;2023-01-16T14:23:59;2.17;;;1.50;;
22973;SDS011;11653;50.848;4.584;2023-01-16T14:29:24;1.73;;;1.43;;
22973;SDS011;11653;50.848;4.584;2023-01-16T14:32:23;1.33;;;1.23;;
22973;SDS011;11653;50.848;4.584;2023-01-16T14:37:33;1.23;;;1.13;;
22973;SDS011;11653;50.848;4.584;2023-01-16T14:42:39;2.73;;;1.50;;
22973;SDS011;11653;50.848;4.584;2023-01-16T14:45:31;2.37;;;1.63;;
22973;SDS011;11653;50.848;4.584;2023-01-16T14:48:37;1.87;;;1.30;;
22973;SDS011;11653;50.848;4.584;2023-01-16T14:54:14;1.97;;;1.63;;
22973;SDS011;11653;50.848;4.584;2023-01-16T14:59:32;2.20;;;1.50;;
22973;SDS011;11653;50.848;4.584;2023-01-16T15:04:45;2.83;;;1.80;;
22973;SDS011;11653;50.848;4.584;2023-01-16T15:07:20;4.33;;;1.97;;
22973;SDS011;11653;50.848;4.584;2023-01-16T15:10:09;3.53;;;1.30;;
22973;SDS011;11653;50.848;4.584;2023-01-16T15:12:53;1.63;;;1.27;;
22973;SDS011;11653;50.848;4.584;2023-01-16T15:15:42;1.60;;;1.50;;
22973;SDS011;11653;50.848;4.584;2023-01-16T15:18:12;2.60;;;1.77;;
22973;SDS011;11653;50.848;4.584;2023-01-16T15:20:59;3.67;;;1.90;;
22973;SDS011;11653;50.848;4.584;2023-01-16T15:23:44;1.83;;;1.73;;
22973;SDS011;11653;50.848;4.584;2023-01-16T15:29:02;2.97;;;1.90;;
22973;SDS011;11653;50.848;4.584;2023-01-16T15:32:33;3.30;;;2.30;;
22973;SDS011;11653;50.848;4.584;2023-01-16T15:34:46;3.80;;;2.40;;
22973;SDS011;11653;50.848;4.584;2023-01-16T15:37:20;3.03;;;2.70;;
22973;SDS011;11653;50.848;4.584;2023-01-16T15:39:47;3.67;;;2.93;;
22973;SDS011;11653;50.848;4.584;2023-01-16T15:42:20;3.50;;;3.20;;
22973;SDS011;11653;50.848;4.584;2023-01-16T15:48:12;3.50;;;3.20;;
22973;SDS011;11653;50.848;4.584;2023-01-16T15:50:58;3.20;;;2.60;;
22973;SDS011;11653;50.848;4.584;2023-01-16T15:53:39;3.93;;;3.50;;
22973;SDS011;11653;50.848;4.584;2023-01-16T15:56:16;5.03;;;3.17;;
22973;SDS011;11653;50.848;4.584;2023-01-16T15:58:50;4.70;;;3.37;;
22973;SDS011;11653;50.848;4.584;2023-01-16T16:01:32;7.17;;;4.90;;
22973;SDS011;11653;50.848;4.584;2023-01-16T16:03:59;6.40;;;4.70;;
22973;SDS011;11653;50.848;4.584;2023-01-16T16:06:26;4.93;;;3.93;;
22973;SDS011;11653;50.848;4.584;2023-01-16T16:08:55;3.60;;;3.00;;
22973;SDS011;11653;50.848;4.584;2023-01-16T16:11:25;4.10;;;3.67;;
22973;SDS011;11653;50.848;4.584;2023-01-16T16:14:15;4.50;;;3.87;;
22973;SDS011;11653;50.848;4.584;2023-01-16T16:17:18;5.33;;;4.40;;
22973;SDS011;11653;50.848;4.584;2023-01-16T16:23:20;4.63;;;4.23;;
22973;SDS011;11653;50.848;4.584;2023-01-16T16:28:18;5.07;;;4.40;;
22973;SDS011;11653;50.848;4.584;2023-01-16T16:30:44;3.43;;;2.60;;
22973;SDS011;11653;50.848;4.584;2023-01-16T16:33:17;2.80;;;2.17;;
22973;SDS011;11653;50.848;4.584;2023-01-16T16:36:02;4.63;;;2.23;;
22973;SDS011;11653;50.848;4.584;2023-01-16T16:38:29;4.87;;;1.93;;
22973;SDS011;11653;50.848;4.584;2023-01-16T16:43:41;4.23;;;1.57;;
22973;SDS011;11653;50.848;4.584;2023-01-16T16:48:48;4.20;;;2.30;;
22973;SDS011;11653;50.848;4.584;2023-01-16T16:51:21;3.00;;;2.60;;
22973;SDS011;11653;50.848;4.584;2023-01-16T16:56:25;3.00;;;2.70;;
22973;SDS011;11653;50.848;4.584;2023-01-16T16:58:54;3.70;;;2.60;;
22973;SDS011;11653;50.848;4.584;2023-01-16T17:01:21;3.03;;;2.60;;
22973;SDS011;11653;50.848;4.584;2023-01-16T17:03:49;2.87;;;2.67;;
22973;SDS011;11653;50.848;4.584;2023-01-16T17:06:30;6.57;;;2.73;;
22973;SDS011;11653;50.848;4.584;2023-01-16T17:08:58;2.60;;;2.10;;
22973;SDS011;11653;50.848;4.584;2023-01-16T17:11:24;2.57;;;2.20;;
22973;SDS011;11653;50.848;4.584;2023-01-16T17:13:51;4.03;;;2.70;;
22973;SDS011;11653;50.848;4.584;2023-01-16T17:16:21;2.80;;;2.23;;
22973;SDS011;11653;50.848;4.584;2023-01-16T17:18:52;3.70;;;2.07;;
22973;SDS011;11653;50.848;4.584;2023-01-16T17:21:22;4.40;;;1.80;;
22973;SDS011;11653;50.848;4.584;2023-01-16T17:23:48;1.77;;;1.67;;
22973;SDS011;11653;50.848;4.584;2023-01-16T17:26:14;1.80;;;1.70;;
22973;SDS011;11653;50.848;4.584;2023-01-16T17:28:40;2.67;;;2.03;;
22973;SDS011;11653;50.848;4.584;2023-01-16T17:31:13;5.53;;;1.90;;
22973;SDS011;11653;50.848;4.584;2023-01-16T17:33:42;2.53;;;1.60;;
22973;SDS011;11653;50.848;4.584;2023-01-16T17:36:13;3.40;;;1.83;;
22973;SDS011;11653;50.848;4.584;2023-01-16T17:38:45;4.53;;;1.77;;
22973;SDS011;11653;50.848;4.584;2023-01-16T17:41:15;6.10;;;1.70;;
22973;SDS011;11653;50.848;4.584;2023-01-16T17:44:04;4.07;;;1.77;;
22973;SDS011;11653;50.848;4.584;2023-01-16T17:46:55;6.80;;;2.63;;
22973;SDS011;11653;50.848;4.584;2023-01-16T17:49:21;3.03;;;1.70;;
22973;SDS011;11653;50.848;4.584;2023-01-16T17:51:47;3.93;;;2.30;;
22973;SDS011;11653;50.848;4.584;2023-01-16T17:54:15;4.10;;;1.77;;
22973;SDS011;11653;50.848;4.584;2023-01-16T17:57:01;4.30;;;1.80;;
22973;SDS011;11653;50.848;4.584;2023-01-16T17:59:27;4.07;;;2.00;;
22973;SDS011;11653;50.848;4.584;2023-01-16T18:01:54;4.10;;;1.70;;
22973;SDS011;11653;50.848;4.584;2023-01-16T18:04:20;3.23;;;1.23;;
22973;SDS011;11653;50.848;4.584;2023-01-16T18:06:46;3.17;;;1.97;;